createdAt,value
2023-05-21T00:01:11.687Z,4.70
2023-05-21T00:03:42.948Z,4.90
2023-05-21T00:06:16.710Z,4.88
2023-05-21T00:08:44.159Z,4.40
2023-05-21T00:11:13.210Z,4.03
2023-05-21T00:13:44.178Z,4.83
2023-05-21T00:16:11.861Z,4.25
2023-05-21T00:18:39.952Z,4.72
2023-05-21T00:21:07.268Z,4.70
2023-05-21T00:23:38.047Z,4.57
2023-05-21T00:26:07.421Z,4.63
2023-05-21T00:28:34.920Z,4.68
2023-05-21T00:31:02.483Z,4.28
2023-05-21T00:33:31.441Z,4.30
2023-05-21T00:35:59.819Z,4.30
2023-05-21T00:38:28.516Z,4.47
2023-05-21T00:40:56.361Z,4.43
2023-05-21T00:43:26.791Z,4.20
2023-05-21T00:45:54.265Z,4.32
2023-05-21T00:48:21.667Z,4.22
2023-05-21T00:50:49.783Z,4.47
2023-05-21T00:53:19.669Z,4.85
2023-05-21T00:55:47.465Z,4.57
2023-05-21T00:58:14.845Z,4.43
2023-05-21T01:00:42.223Z,4.45
2023-05-21T01:03:11.332Z,4.40
2023-05-21T01:05:38.840Z,4.68
2023-05-21T01:08:06.395Z,4.10
2023-05-21T01:10:33.828Z,4.78
2023-05-21T01:13:01.182Z,4.35
2023-05-21T01:15:28.608Z,4.30
2023-05-21T01:17:56.243Z,4.07
2023-05-21T01:20:23.771Z,4.45
2023-05-21T01:22:53.292Z,4.65
2023-05-21T01:25:20.625Z,4.18
2023-05-21T01:27:48.013Z,3.93
2023-05-21T01:30:16.113Z,4.15
2023-05-21T01:32:57.184Z,4.43
2023-05-21T01:35:28.233Z,4.63
2023-05-21T01:38:09.618Z,4.20
2023-05-21T01:40:40.965Z,4.33
2023-05-21T01:43:08.816Z,4.65
2023-05-21T01:45:38.706Z,4.57
2023-05-21T01:48:06.755Z,4.45
2023-05-21T01:50:34.779Z,4.43
2023-05-21T01:53:04.009Z,3.93
2023-05-21T01:55:31.661Z,4.07
2023-05-21T01:58:01.991Z,3.67
2023-05-21T02:00:29.943Z,4.38
2023-05-21T02:02:57.446Z,4.20
2023-05-21T02:05:25.055Z,4.33
2023-05-21T02:07:53.029Z,4.28
2023-05-21T02:10:21.561Z,4.18
2023-05-21T02:12:48.814Z,4.45
2023-05-21T02:15:18.316Z,4.50
2023-05-21T02:17:46.723Z,4.17
2023-05-21T02:20:14.842Z,4.53
2023-05-21T02:22:44.098Z,4.78
2023-05-21T02:25:12.646Z,4.32
2023-05-21T02:27:41.192Z,4.53
2023-05-21T02:30:12.177Z,4.17
2023-05-21T02:32:43.318Z,4.13
2023-05-21T02:35:12.899Z,4.25
2023-05-21T02:37:40.836Z,4.63
2023-05-21T02:40:10.170Z,4.00
2023-05-21T02:42:39.982Z,4.57
2023-05-21T02:45:12.691Z,5.10
2023-05-21T02:47:42.642Z,3.90
2023-05-21T02:50:09.864Z,4.35
2023-05-21T02:52:44.442Z,4.30
2023-05-21T02:55:11.738Z,4.40
2023-05-21T02:57:39.429Z,4.53
2023-05-21T03:00:10.038Z,4.38
2023-05-21T03:02:38.928Z,4.50
2023-05-21T03:05:06.958Z,4.95
2023-05-21T03:07:34.250Z,5.10
2023-05-21T03:10:01.934Z,4.32
2023-05-21T03:12:30.342Z,4.60
2023-05-21T03:15:00.373Z,4.68
2023-05-21T03:17:34.288Z,5.00
2023-05-21T03:20:01.959Z,4.90
2023-05-21T03:22:29.305Z,4.70
2023-05-21T03:24:58.590Z,5.38
2023-05-21T03:27:26.341Z,5.32
2023-05-21T03:29:56.242Z,5.72
2023-05-21T03:32:24.057Z,5.53
2023-05-21T03:34:52.034Z,5.93
2023-05-21T03:37:19.476Z,6.05
2023-05-21T03:39:48.017Z,6.55
2023-05-21T03:42:15.417Z,6.18
2023-05-21T03:44:49.264Z,7.03
2023-05-21T03:47:36.704Z,6.40
2023-05-21T03:50:08.382Z,6.85
2023-05-21T03:52:36.023Z,6.55
2023-05-21T03:55:04.659Z,6.10
2023-05-21T03:57:33.248Z,6.77
2023-05-21T04:00:01.220Z,6.47
2023-05-21T04:02:33.341Z,6.38
2023-05-21T04:05:00.976Z,6.50
2023-05-21T04:07:30.463Z,6.05
2023-05-21T04:09:58.113Z,6.67
2023-05-21T04:12:25.638Z,6.78
2023-05-21T04:14:52.875Z,6.13
2023-05-21T04:17:21.222Z,6.40
2023-05-21T04:19:48.622Z,6.57
2023-05-21T04:22:16.219Z,6.47
2023-05-21T04:24:43.861Z,6.07
2023-05-21T04:27:16.956Z,7.78
2023-05-21T04:29:45.211Z,20.67
2023-05-21T04:32:15.450Z,8.45
2023-05-21T04:34:44.404Z,6.70
2023-05-21T04:37:12.553Z,6.28
2023-05-21T04:39:41.415Z,6.72
2023-05-21T04:42:11.352Z,6.47
2023-05-21T04:44:41.140Z,6.50
2023-05-21T04:47:12.653Z,6.70
2023-05-21T04:49:39.969Z,6.13
2023-05-21T04:52:08.814Z,6.55
2023-05-21T04:54:37.102Z,6.20
2023-05-21T04:57:04.447Z,6.40
2023-05-21T04:59:35.536Z,6.40
2023-05-21T05:02:03.203Z,6.70
2023-05-21T05:04:30.435Z,5.60
2023-05-21T05:06:57.800Z,6.20
2023-05-21T05:09:27.103Z,5.78
2023-05-21T05:11:55.405Z,5.63
2023-05-21T05:14:29.640Z,8.38
2023-05-21T05:17:01.002Z,10.57
2023-05-21T05:19:29.070Z,6.25
2023-05-21T05:21:56.739Z,6.30
2023-05-21T05:24:28.040Z,6.27
2023-05-21T05:26:55.423Z,6.35
2023-05-21T05:29:22.972Z,5.93
2023-05-21T05:31:52.603Z,5.43
2023-05-21T05:34:21.954Z,5.57
2023-05-21T05:36:49.662Z,5.40
2023-05-21T05:39:18.911Z,6.20
2023-05-21T05:41:48.304Z,5.45
2023-05-21T05:44:17.090Z,5.80
2023-05-21T05:46:46.289Z,5.43
2023-05-21T05:49:17.184Z,5.43
2023-05-21T05:51:45.194Z,5.50
2023-05-21T05:54:12.576Z,4.78
2023-05-21T05:56:41.260Z,5.00
2023-05-21T05:59:09.168Z,4.93
2023-05-21T06:01:38.766Z,4.90
2023-05-21T06:04:06.779Z,5.18
2023-05-21T06:06:35.083Z,4.45
2023-05-21T06:09:03.460Z,4.78
2023-05-21T06:11:38.087Z,4.80
2023-05-21T06:14:05.501Z,4.90
2023-05-21T06:16:34.254Z,4.30
2023-05-21T06:19:03.834Z,4.47
2023-05-21T06:21:33.601Z,4.43
2023-05-21T06:24:02.410Z,4.28
2023-05-21T06:26:33.194Z,4.70
2023-05-21T06:29:01.094Z,3.92
2023-05-21T06:31:33.543Z,3.83
2023-05-21T06:34:01.674Z,4.22
2023-05-21T06:36:32.393Z,4.30
2023-05-21T06:39:00.025Z,4.50
2023-05-21T06:41:28.654Z,4.53
2023-05-21T06:44:02.421Z,4.90
2023-05-21T06:46:49.937Z,5.65
2023-05-21T06:49:20.809Z,5.38
2023-05-21T06:51:49.554Z,5.90
2023-05-21T06:54:19.197Z,6.20
2023-05-21T06:56:46.586Z,6.68
2023-05-21T06:59:16.944Z,5.90
2023-05-21T07:01:44.852Z,7.03
2023-05-21T07:04:13.178Z,8.43
2023-05-21T07:06:42.856Z,9.90
2023-05-21T07:09:10.961Z,8.95
2023-05-21T07:11:39.410Z,9.48
2023-05-21T07:14:09.314Z,9.63
2023-05-21T07:16:37.672Z,9.90
2023-05-21T07:19:05.243Z,9.85
2023-05-21T07:21:34.871Z,10.40
2023-05-21T07:24:02.716Z,9.18
2023-05-21T07:26:32.069Z,9.10
2023-05-21T07:28:59.461Z,7.80
2023-05-21T07:31:27.506Z,8.88
2023-05-21T07:33:55.592Z,8.43
2023-05-21T07:36:27.636Z,7.90
2023-05-21T07:38:55.475Z,7.40
2023-05-21T07:41:23.118Z,7.37
2023-05-21T07:43:51.295Z,7.80
2023-05-21T07:46:19.199Z,7.80
2023-05-21T07:48:50.284Z,7.93
2023-05-21T07:51:19.656Z,7.72
2023-05-21T07:53:47.066Z,7.53
2023-05-21T07:56:16.580Z,8.05
2023-05-21T07:58:46.154Z,7.80
2023-05-21T08:01:15.480Z,7.40
2023-05-21T08:03:43.101Z,7.40
2023-05-21T08:06:13.064Z,6.60
2023-05-21T08:08:41.249Z,6.68
2023-05-21T08:11:08.706Z,6.47
2023-05-21T08:13:42.024Z,6.70
2023-05-21T08:16:14.562Z,6.45
2023-05-21T08:18:42.859Z,6.00
2023-05-21T08:21:13.284Z,6.13
2023-05-21T08:23:40.967Z,7.90
2023-05-21T08:26:08.935Z,7.60
2023-05-21T08:28:39.451Z,7.75
2023-05-21T08:31:07.283Z,8.40
2023-05-21T08:33:50.163Z,8.55
2023-05-21T08:36:28.707Z,8.90
2023-05-21T08:39:04.767Z,9.10
2023-05-21T08:41:36.472Z,8.75
2023-05-21T08:44:05.712Z,8.73
2023-05-21T08:46:35.688Z,8.38
2023-05-21T08:49:03.523Z,8.38
2023-05-21T08:51:31.501Z,8.80
2023-05-21T08:54:00.449Z,9.20
2023-05-21T08:56:28.239Z,9.03
2023-05-21T08:58:59.537Z,10.60
2023-05-21T09:01:29.897Z,10.75
2023-05-21T09:04:19.762Z,12.82
2023-05-21T09:06:50.590Z,11.57
2023-05-21T09:09:34.755Z,11.63
2023-05-21T09:12:03.214Z,11.52
2023-05-21T09:14:31.919Z,11.95
2023-05-21T09:17:17.441Z,11.35
2023-05-21T09:20:15.406Z,11.43
2023-05-21T09:22:54.032Z,11.10
2023-05-21T09:25:22.552Z,11.80
2023-05-21T09:27:50.242Z,10.98
2023-05-21T09:30:25.997Z,10.70
2023-05-21T09:32:59.109Z,11.10
2023-05-21T09:35:27.982Z,11.77
2023-05-21T09:37:58.620Z,10.95
2023-05-21T09:40:27.422Z,11.18
2023-05-21T09:42:56.876Z,10.93
2023-05-21T09:45:28.752Z,11.77
2023-05-21T09:47:58.795Z,11.63
2023-05-21T09:50:30.142Z,10.63
2023-05-21T09:52:58.890Z,11.70
2023-05-21T09:55:27.312Z,11.90
2023-05-21T09:57:54.935Z,12.48
2023-05-21T10:00:28.250Z,11.43
2023-05-21T10:02:57.866Z,12.50
2023-05-21T10:05:31.561Z,11.10
2023-05-21T10:08:01.870Z,12.27
2023-05-21T10:10:30.513Z,14.23
2023-05-21T10:13:10.022Z,11.77
2023-05-21T10:15:39.740Z,11.48
2023-05-21T10:18:07.600Z,11.80
2023-05-21T10:20:35.358Z,11.70
2023-05-21T10:23:07.104Z,11.38
2023-05-21T10:25:35.361Z,11.93
2023-05-21T10:28:04.178Z,11.73
2023-05-21T10:30:33.552Z,10.75
2023-05-21T10:33:03.603Z,11.52
2023-05-21T10:35:33.998Z,11.65
2023-05-21T10:38:05.475Z,14.77
2023-05-21T10:40:33.026Z,13.32
2023-05-21T10:43:22.260Z,12.32
2023-05-21T10:46:28.531Z,11.63
2023-05-21T10:49:16.963Z,11.73
2023-05-21T10:52:02.871Z,14.27
2023-05-21T10:54:32.794Z,12.85
2023-05-21T10:57:13.708Z,10.75
2023-05-21T10:59:44.206Z,11.20
2023-05-21T11:02:13.257Z,10.45
2023-05-21T11:04:43.187Z,10.07
2023-05-21T11:07:11.326Z,8.70
2023-05-21T11:09:38.706Z,8.00
2023-05-21T11:12:10.493Z,7.82
2023-05-21T11:14:39.969Z,9.43
2023-05-21T11:17:12.566Z,10.20
2023-05-21T11:19:45.517Z,12.10
2023-05-21T11:22:27.182Z,9.10
2023-05-21T11:24:55.277Z,7.70
2023-05-21T11:27:34.196Z,6.60
2023-05-21T11:30:04.490Z,7.47
2023-05-21T11:32:31.959Z,6.90
2023-05-21T11:35:02.704Z,4.93
2023-05-21T11:37:35.378Z,4.40
2023-05-21T11:40:30.939Z,4.75
2023-05-21T11:43:18.915Z,4.10
2023-05-21T11:45:47.723Z,4.35
2023-05-21T11:48:15.178Z,3.88
2023-05-21T11:50:45.198Z,4.30
2023-05-21T11:53:13.317Z,3.90
2023-05-21T11:55:43.890Z,3.83
2023-05-21T11:58:13.957Z,3.75
2023-05-21T12:00:41.524Z,3.90
2023-05-21T12:03:13.265Z,4.20
2023-05-21T12:05:50.376Z,3.58
2023-05-21T12:08:29.238Z,4.63
2023-05-21T12:11:00.458Z,3.65
2023-05-21T12:13:28.661Z,4.38
2023-05-21T12:16:08.461Z,4.18
2023-05-21T12:18:37.251Z,3.50
2023-05-21T12:21:12.609Z,4.10
2023-05-21T12:24:04.728Z,4.03
2023-05-21T12:26:37.630Z,4.47
2023-05-21T12:29:12.135Z,4.55
2023-05-21T12:32:03.115Z,3.88
2023-05-21T12:34:46.676Z,3.77
2023-05-21T12:37:29.806Z,4.63
2023-05-21T12:40:11.445Z,3.70
2023-05-21T12:42:42.110Z,3.95
2023-05-21T12:45:12.861Z,3.90
2023-05-21T12:47:40.435Z,4.30
2023-05-21T12:50:14.322Z,4.38
2023-05-21T12:52:44.448Z,4.93
2023-05-21T12:55:13.786Z,4.45
2023-05-21T12:57:41.849Z,4.30
2023-05-21T13:00:10.777Z,4.00
2023-05-21T13:02:48.859Z,4.15
2023-05-21T13:05:19.902Z,4.75
2023-05-21T13:07:47.895Z,3.80
2023-05-21T13:10:17.043Z,3.88
2023-05-21T13:12:45.914Z,3.80
2023-05-21T13:15:13.163Z,3.85
2023-05-21T13:17:43.269Z,3.80
2023-05-21T13:20:15.473Z,3.83
2023-05-21T13:22:44.148Z,4.13
2023-05-21T13:25:12.305Z,3.73
2023-05-21T13:27:44.094Z,3.60
2023-05-21T13:30:12.193Z,3.80
2023-05-21T13:32:43.663Z,3.92
2023-05-21T13:35:12.539Z,3.67
2023-05-21T13:37:41.356Z,3.63
2023-05-21T13:40:15.710Z,3.92
2023-05-21T13:42:45.736Z,3.90
2023-05-21T13:45:21.414Z,5.93
2023-05-21T13:47:49.384Z,6.50
2023-05-21T13:50:17.868Z,5.80
2023-05-21T13:52:45.463Z,6.95
2023-05-21T13:55:13.217Z,6.45
2023-05-21T13:57:41.639Z,7.18
2023-05-21T14:00:18.269Z,7.50
2023-05-21T14:02:46.711Z,6.30
2023-05-21T14:05:14.230Z,6.70
2023-05-21T14:07:43.242Z,6.78
2023-05-21T14:10:11.404Z,6.10
2023-05-21T14:12:46.367Z,6.20
2023-05-21T14:15:18.022Z,5.90
2023-05-21T14:17:48.466Z,5.72
2023-05-21T14:20:15.960Z,6.22
2023-05-21T14:22:43.276Z,5.88
2023-05-21T14:25:11.394Z,6.55
2023-05-21T14:27:48.934Z,5.80
2023-05-21T14:30:21.316Z,5.95
2023-05-21T14:32:49.659Z,6.03
2023-05-21T14:35:21.460Z,6.28
2023-05-21T14:37:54.713Z,7.55
2023-05-21T14:40:26.327Z,8.73
2023-05-21T14:42:55.950Z,8.70
2023-05-21T14:45:36.547Z,8.43
2023-05-21T14:48:08.799Z,9.13
2023-05-21T14:50:40.018Z,8.75
2023-05-21T14:53:12.704Z,7.93
2023-05-21T14:55:44.223Z,7.10
2023-05-21T14:58:20.075Z,7.53
2023-05-21T15:00:47.716Z,7.43
2023-05-21T15:03:15.621Z,7.55
2023-05-21T15:05:44.367Z,7.00
2023-05-21T15:08:13.976Z,6.95
2023-05-21T15:10:42.364Z,7.07
2023-05-21T15:13:10.794Z,7.28
2023-05-21T15:15:41.175Z,7.00
2023-05-21T15:18:09.738Z,7.30
2023-05-21T15:20:38.277Z,6.72
2023-05-21T15:23:16.046Z,6.75
2023-05-21T15:25:44.233Z,6.95
2023-05-21T15:28:12.600Z,6.50
2023-05-21T15:30:40.167Z,6.73
2023-05-21T15:33:07.445Z,7.75
2023-05-21T15:35:38.240Z,9.73
2023-05-21T15:38:06.991Z,6.85
2023-05-21T15:40:34.399Z,6.82
2023-05-21T15:43:06.703Z,6.50
2023-05-21T15:45:43.050Z,7.28
2023-05-21T15:48:12.637Z,7.55
2023-05-21T15:50:40.395Z,7.65
2023-05-21T15:53:09.463Z,7.38
2023-05-21T15:55:40.285Z,7.83
2023-05-21T15:58:07.922Z,7.32
2023-05-21T16:00:36.532Z,7.60
2023-05-21T16:03:04.202Z,7.25
2023-05-21T16:05:31.458Z,7.50
2023-05-21T16:08:00.765Z,7.30
2023-05-21T16:10:29.223Z,7.88
2023-05-21T16:12:56.625Z,7.38
2023-05-21T16:15:24.001Z,7.60
2023-05-21T16:17:53.359Z,7.38
2023-05-21T16:20:22.083Z,8.37
2023-05-21T16:22:51.477Z,7.38
2023-05-21T16:25:18.807Z,7.45
2023-05-21T16:27:47.712Z,7.43
2023-05-21T16:30:21.294Z,7.95
2023-05-21T16:32:48.457Z,7.20
2023-05-21T16:35:18.103Z,7.05
2023-05-21T16:37:47.235Z,7.20
2023-05-21T16:40:15.537Z,7.35
2023-05-21T16:42:44.929Z,7.03
2023-05-21T16:45:19.791Z,6.67
2023-05-21T16:47:50.748Z,6.93
2023-05-21T16:50:19.581Z,6.57
2023-05-21T16:52:47.895Z,5.95
2023-05-21T16:55:16.193Z,5.97
2023-05-21T16:57:43.641Z,6.20
2023-05-21T17:00:11.316Z,6.38
2023-05-21T17:02:39.081Z,5.70
2023-05-21T17:05:07.832Z,6.32
2023-05-21T17:07:36.747Z,5.90
2023-05-21T17:10:04.182Z,5.27
2023-05-21T17:12:32.547Z,5.90
2023-05-21T17:15:01.433Z,6.10
2023-05-21T17:17:29.766Z,5.88
2023-05-21T17:20:00.503Z,6.20
2023-05-21T17:22:28.024Z,6.47
2023-05-21T17:24:56.454Z,5.75
2023-05-21T17:27:24.068Z,6.45
2023-05-21T17:29:51.575Z,6.28
2023-05-21T17:32:21.576Z,6.17
2023-05-21T17:34:48.863Z,6.38
2023-05-21T17:37:17.009Z,6.50
2023-05-21T17:39:46.122Z,5.97
2023-05-21T17:42:14.426Z,6.20
2023-05-21T17:44:41.696Z,5.93
2023-05-21T17:47:09.021Z,6.72
2023-05-21T17:49:36.399Z,7.13
2023-05-21T17:52:04.887Z,6.50
2023-05-21T17:54:32.061Z,6.25
2023-05-21T17:56:59.304Z,6.50
2023-05-21T17:59:26.845Z,6.65
2023-05-21T18:01:54.283Z,7.03
2023-05-21T18:04:21.672Z,6.78
2023-05-21T18:06:48.993Z,6.38
2023-05-21T18:09:16.336Z,6.53
2023-05-21T18:11:44.985Z,6.57
2023-05-21T18:14:14.495Z,6.30
2023-05-21T18:16:42.052Z,6.70
2023-05-21T18:19:09.260Z,7.47
2023-05-21T18:21:36.582Z,7.23
2023-05-21T18:24:04.155Z,7.82
2023-05-21T18:26:31.455Z,7.38
2023-05-21T18:29:06.622Z,8.30
2023-05-21T18:31:34.147Z,9.10
2023-05-21T18:34:02.146Z,8.83
2023-05-21T18:36:30.556Z,9.50
2023-05-21T18:38:57.992Z,8.90
2023-05-21T18:41:28.155Z,7.72
2023-05-21T18:43:55.532Z,8.10
2023-05-21T18:46:22.870Z,8.13
2023-05-21T18:48:50.260Z,7.50
2023-05-21T18:51:17.756Z,8.55
2023-05-21T18:53:45.017Z,8.75
2023-05-21T18:56:12.310Z,7.75
2023-05-21T18:58:39.537Z,8.40
2023-05-21T19:01:08.261Z,7.88
2023-05-21T19:03:37.003Z,6.72
2023-05-21T19:06:05.062Z,6.75
2023-05-21T19:08:33.473Z,6.60
2023-05-21T19:11:04.341Z,5.50
2023-05-21T19:13:31.767Z,5.40
2023-05-21T19:15:59.001Z,5.10
2023-05-21T19:18:31.938Z,5.22
2023-05-21T19:21:00.517Z,4.95
2023-05-21T19:23:28.260Z,5.03
2023-05-21T19:25:56.869Z,5.03
2023-05-21T19:28:26.206Z,4.47
2023-05-21T19:30:53.485Z,4.15
2023-05-21T19:33:20.916Z,4.25
2023-05-21T19:35:50.486Z,4.00
2023-05-21T19:38:19.042Z,3.72
2023-05-21T19:40:46.344Z,4.10
2023-05-21T19:43:13.631Z,4.18
2023-05-21T19:45:43.014Z,4.45
2023-05-21T19:48:10.398Z,3.90
2023-05-21T19:50:37.900Z,3.88
2023-05-21T19:53:05.334Z,4.30
2023-05-21T19:55:35.675Z,4.03
2023-05-21T19:58:03.262Z,4.30
2023-05-21T20:00:30.619Z,4.20
2023-05-21T20:02:58.830Z,4.13
2023-05-21T20:05:26.220Z,4.13
2023-05-21T20:07:53.500Z,4.07
2023-05-21T20:10:21.135Z,4.18
2023-05-21T20:12:48.253Z,4.00
2023-05-21T20:15:15.750Z,4.35
2023-05-21T20:17:44.689Z,4.28
2023-05-21T20:20:14.516Z,3.88
2023-05-21T20:22:41.823Z,4.03
2023-05-21T20:25:09.488Z,4.17
2023-05-21T20:27:39.316Z,3.70
2023-05-21T20:30:07.917Z,4.35
2023-05-21T20:32:35.371Z,3.58
2023-05-21T20:35:03.981Z,4.25
2023-05-21T20:37:36.704Z,4.30
2023-05-21T20:40:07.431Z,4.68
2023-05-21T20:42:35.632Z,4.18
2023-05-21T20:45:03.724Z,4.50
2023-05-21T20:47:31.156Z,4.28
2023-05-21T20:49:59.552Z,4.40
2023-05-21T20:52:27.177Z,5.18
2023-05-21T20:55:00.809Z,4.43
2023-05-21T20:57:30.684Z,4.18
2023-05-21T20:59:57.892Z,4.25
2023-05-21T21:02:25.104Z,3.93
2023-05-21T21:04:55.300Z,4.15
2023-05-21T21:07:22.694Z,4.32
2023-05-21T21:09:49.865Z,4.43
2023-05-21T21:14:48.652Z,4.67
2023-05-21T21:17:16.015Z,5.15
2023-05-21T21:19:44.452Z,4.50
2023-05-21T21:22:11.653Z,4.65
2023-05-21T21:24:39.629Z,4.63
2023-05-21T21:27:07.140Z,4.50
2023-05-21T21:29:34.450Z,4.50
2023-05-21T21:32:01.879Z,4.85
2023-05-21T21:34:31.199Z,5.07
2023-05-21T21:36:59.616Z,4.90
2023-05-21T21:39:27.952Z,5.30
2023-05-21T21:41:55.266Z,4.45
2023-05-21T21:44:23.615Z,4.68
2023-05-21T21:46:51.077Z,4.32
2023-05-21T21:49:18.519Z,4.60
2023-05-21T21:51:46.389Z,4.33
2023-05-21T21:54:13.887Z,4.32
2023-05-21T21:56:41.794Z,4.45
2023-05-21T21:59:09.218Z,4.03
2023-05-21T22:01:37.980Z,5.03
2023-05-21T22:04:05.830Z,4.43
2023-05-21T22:06:33.651Z,4.32
2023-05-21T22:09:01.773Z,4.68
2023-05-21T22:11:30.629Z,4.22
2023-05-21T22:13:57.984Z,4.10
2023-05-21T22:16:25.371Z,4.40
2023-05-21T22:18:54.816Z,4.28
2023-05-21T22:21:22.103Z,4.28
2023-05-21T22:23:49.457Z,4.47
2023-05-21T22:26:16.845Z,4.22
2023-05-21T22:28:45.216Z,4.47
2023-05-21T22:31:12.552Z,4.43
2023-05-21T22:33:39.850Z,4.32
2023-05-21T22:36:07.403Z,4.25
2023-05-21T22:38:38.059Z,4.07
2023-05-21T22:41:05.499Z,4.37
2023-05-21T22:43:35.199Z,4.78
2023-05-21T22:46:04.568Z,4.60
2023-05-21T22:48:37.454Z,4.80
2023-05-21T22:51:04.926Z,4.10
2023-05-21T22:53:33.915Z,4.30
2023-05-21T22:56:01.466Z,4.53
2023-05-21T22:58:29.674Z,4.97
2023-05-21T23:00:57.849Z,4.50
2023-05-21T23:03:25.300Z,5.22
2023-05-21T23:05:52.483Z,4.50
2023-05-21T23:08:19.994Z,4.82
2023-05-21T23:10:47.299Z,4.90
2023-05-21T23:13:15.063Z,4.88
2023-05-21T23:15:44.107Z,5.28
2023-05-21T23:18:16.016Z,5.73
2023-05-21T23:20:44.085Z,5.60
2023-05-21T23:23:11.682Z,4.90
2023-05-21T23:25:39.020Z,5.35
2023-05-21T23:28:07.344Z,5.75
2023-05-21T23:30:34.587Z,5.13
2023-05-21T23:33:01.805Z,5.97
2023-05-21T23:35:29.439Z,6.55
2023-05-21T23:37:56.784Z,5.65
2023-05-21T23:40:24.114Z,5.80
2023-05-21T23:42:51.436Z,5.80
2023-05-21T23:45:18.879Z,6.55
2023-05-21T23:47:46.255Z,6.55
2023-05-21T23:50:13.449Z,6.10
2023-05-21T23:52:41.806Z,7.15
2023-05-21T23:55:11.922Z,6.83
2023-05-21T23:57:39.210Z,7.45
